createdAt,value
2022-12-22T00:01:44.867Z,9.00
2022-12-22T00:04:33.702Z,9.00
2022-12-22T00:07:19.103Z,9.00
2022-12-22T00:10:04.286Z,9.00
2022-12-22T00:12:49.521Z,9.10
2022-12-22T00:15:35.977Z,9.00
2022-12-22T00:18:21.636Z,9.10
2022-12-22T00:21:07.187Z,9.10
2022-12-22T00:23:52.445Z,9.10
2022-12-22T00:26:38.360Z,9.10
2022-12-22T00:29:23.858Z,9.10
2022-12-22T00:32:09.639Z,9.10
2022-12-22T00:35:01.556Z,9.10
2022-12-22T00:37:50.462Z,9.10
2022-12-22T00:40:45.217Z,9.00
2022-12-22T00:43:30.569Z,9.10
2022-12-22T00:46:17.389Z,9.00
2022-12-22T00:49:03.624Z,9.10
2022-12-22T00:51:50.094Z,9.10
2022-12-22T00:54:37.430Z,9.10
2022-12-22T00:57:22.808Z,9.10
2022-12-22T01:00:08.601Z,9.10
2022-12-22T01:02:54.545Z,9.10
2022-12-22T01:05:40.823Z,9.10
2022-12-22T01:08:28.322Z,9.00
2022-12-22T01:11:13.810Z,9.10
2022-12-22T01:13:58.961Z,9.00
2022-12-22T01:16:44.233Z,9.00
2022-12-22T01:19:29.737Z,9.00
2022-12-22T01:22:16.168Z,9.10
2022-12-22T01:25:02.654Z,9.10
2022-12-22T01:27:47.805Z,9.00
2022-12-22T01:30:33.171Z,9.00
2022-12-22T01:33:18.510Z,9.00
2022-12-22T01:36:03.842Z,9.00
2022-12-22T01:38:49.042Z,9.00
2022-12-22T01:41:38.838Z,9.00
2022-12-22T01:44:36.357Z,9.10
2022-12-22T01:47:46.626Z,9.10
2022-12-22T01:50:33.944Z,9.00
2022-12-22T01:53:22.923Z,9.10
2022-12-22T01:56:08.798Z,9.10
2022-12-22T01:58:59.820Z,9.10
2022-12-22T02:01:46.436Z,9.00
2022-12-22T02:04:31.915Z,9.10
2022-12-22T02:07:30.056Z,9.20
2022-12-22T02:10:37.584Z,9.10
2022-12-22T02:13:48.955Z,9.20
2022-12-22T02:16:46.223Z,9.20
2022-12-22T02:19:46.233Z,9.10
2022-12-22T02:22:51.733Z,9.10
2022-12-22T02:25:49.112Z,9.10
2022-12-22T02:28:34.339Z,9.20
2022-12-22T02:31:19.901Z,9.20
2022-12-22T02:34:05.364Z,9.10
2022-12-22T02:37:17.624Z,9.20
2022-12-22T02:40:41.410Z,9.20
2022-12-22T02:43:38.497Z,9.10
2022-12-22T02:46:52.838Z,9.20
2022-12-22T02:50:10.029Z,9.20
2022-12-22T02:52:56.926Z,9.20
2022-12-22T02:55:43.727Z,9.10
2022-12-22T02:58:31.855Z,9.20
2022-12-22T03:01:18.027Z,9.20
2022-12-22T03:04:03.626Z,9.20
2022-12-22T03:06:49.008Z,9.20
2022-12-22T03:09:34.441Z,9.20
2022-12-22T03:12:19.651Z,9.20
2022-12-22T03:15:04.847Z,9.20
2022-12-22T03:17:50.289Z,9.20
2022-12-22T03:20:35.473Z,9.20
2022-12-22T03:23:25.595Z,9.30
2022-12-22T03:25:53.250Z,9.30
2022-12-22T03:28:22.260Z,9.20
2022-12-22T03:31:05.925Z,9.30
2022-12-22T03:33:33.436Z,9.30
2022-12-22T03:36:00.458Z,9.20
2022-12-22T03:38:27.421Z,9.30
2022-12-22T03:40:54.688Z,9.30
2022-12-22T03:43:40.263Z,9.30
2022-12-22T03:46:16.500Z,9.30
2022-12-22T03:48:44.216Z,9.30
2022-12-22T03:51:11.221Z,9.40
2022-12-22T03:53:37.861Z,9.30
2022-12-22T03:56:08.033Z,9.40
2022-12-22T03:58:34.849Z,9.30
2022-12-22T04:01:06.816Z,9.30
2022-12-22T04:03:33.763Z,9.30
2022-12-22T04:06:00.592Z,9.30
2022-12-22T04:08:27.328Z,9.30
2022-12-22T04:11:12.815Z,9.30
2022-12-22T04:13:39.383Z,9.40
2022-12-22T04:16:06.402Z,9.30
2022-12-22T04:18:33.020Z,9.30
2022-12-22T04:20:59.744Z,9.30
2022-12-22T04:23:26.379Z,9.40
2022-12-22T04:25:53.165Z,9.30
2022-12-22T04:28:19.905Z,9.30
2022-12-22T04:30:51.842Z,9.30
2022-12-22T04:33:18.687Z,9.40
2022-12-22T04:35:45.318Z,9.40
2022-12-22T04:38:11.958Z,9.30
2022-12-22T04:40:38.749Z,9.40
2022-12-22T04:43:05.583Z,9.40
2022-12-22T04:45:32.239Z,9.40
2022-12-22T04:47:59.022Z,9.30
2022-12-22T04:50:25.639Z,9.40
2022-12-22T04:52:52.401Z,9.40
2022-12-22T04:55:19.162Z,9.40
2022-12-22T04:57:45.719Z,9.30
2022-12-22T05:00:12.796Z,9.40
2022-12-22T05:02:39.624Z,9.50
2022-12-22T05:05:06.965Z,9.40
2022-12-22T05:07:33.700Z,9.40
2022-12-22T05:10:00.282Z,9.50
2022-12-22T05:12:45.702Z,9.40
2022-12-22T05:15:12.852Z,9.50
2022-12-22T05:17:39.581Z,9.50
2022-12-22T05:20:06.870Z,9.40
2022-12-22T05:22:33.491Z,9.50
2022-12-22T05:25:00.151Z,9.50
2022-12-22T05:27:26.847Z,9.50
2022-12-22T05:29:53.491Z,9.40
2022-12-22T05:32:20.235Z,9.50
2022-12-22T05:34:46.967Z,9.40
2022-12-22T05:37:13.611Z,9.40
2022-12-22T05:39:40.239Z,9.40
2022-12-22T05:42:06.888Z,9.50
2022-12-22T05:44:33.524Z,9.40
2022-12-22T05:47:00.165Z,9.40
2022-12-22T05:49:26.719Z,9.50
2022-12-22T05:51:54.264Z,9.50
2022-12-22T05:54:20.902Z,9.50
2022-12-22T05:56:47.532Z,9.50
2022-12-22T05:59:14.274Z,9.50
2022-12-22T06:01:40.906Z,9.40
2022-12-22T06:04:07.618Z,9.40
2022-12-22T06:06:34.407Z,9.50
2022-12-22T06:09:01.004Z,9.50
2022-12-22T06:11:27.588Z,9.50
2022-12-22T06:13:54.217Z,9.50
2022-12-22T06:16:20.854Z,9.40
2022-12-22T06:18:47.523Z,9.50
2022-12-22T06:21:14.226Z,9.50
2022-12-22T06:23:41.015Z,9.50
2022-12-22T06:26:07.597Z,9.60
2022-12-22T06:28:34.260Z,9.60
2022-12-22T06:31:01.040Z,9.50
2022-12-22T06:33:27.910Z,9.50
2022-12-22T06:35:58.871Z,9.60
2022-12-22T06:38:27.382Z,9.60
2022-12-22T06:40:54.087Z,9.60
2022-12-22T06:43:20.805Z,9.60
2022-12-22T06:45:47.415Z,9.60
2022-12-22T06:48:14.149Z,9.60
2022-12-22T06:50:41.604Z,9.60
2022-12-22T06:53:08.987Z,9.70
2022-12-22T06:55:36.869Z,9.50
2022-12-22T06:58:04.182Z,9.60
2022-12-22T07:00:30.955Z,9.60
2022-12-22T07:02:57.837Z,9.60
2022-12-22T07:05:24.841Z,9.60
2022-12-22T07:07:52.342Z,9.60
2022-12-22T07:10:19.329Z,9.70
2022-12-22T07:12:45.919Z,9.70
2022-12-22T07:15:12.664Z,9.70
2022-12-22T07:17:41.479Z,9.70
2022-12-22T07:20:08.830Z,9.70
2022-12-22T07:22:35.474Z,9.70
2022-12-22T07:25:02.097Z,9.70
2022-12-22T07:27:28.717Z,9.80
2022-12-22T07:29:55.304Z,9.90
2022-12-22T07:32:22.012Z,9.90
2022-12-22T07:34:48.613Z,9.90
2022-12-22T07:37:15.261Z,9.90
2022-12-22T07:39:41.923Z,10.10
2022-12-22T07:42:30.881Z,10.00
2022-12-22T07:44:57.513Z,10.10
2022-12-22T07:47:26.243Z,10.10
2022-12-22T07:50:14.195Z,10.10
2022-12-22T07:52:40.815Z,10.10
2022-12-22T07:55:08.355Z,10.20
2022-12-22T07:57:35.883Z,10.20
2022-12-22T08:00:03.401Z,10.30
2022-12-22T08:02:33.865Z,10.40
2022-12-22T08:05:05.916Z,10.30
2022-12-22T08:07:35.581Z,10.30
2022-12-22T08:10:02.209Z,10.30
2022-12-22T08:12:29.800Z,10.30
2022-12-22T08:14:56.559Z,10.30
2022-12-22T08:17:23.236Z,10.30
2022-12-22T08:19:49.886Z,10.30
2022-12-22T08:22:16.509Z,10.30
2022-12-22T08:24:43.133Z,10.20
2022-12-22T08:27:19.567Z,10.30
2022-12-22T08:29:55.506Z,10.30
2022-12-22T08:32:22.235Z,10.20
2022-12-22T08:34:51.313Z,10.20
2022-12-22T08:37:20.916Z,10.20
2022-12-22T08:39:52.410Z,10.20
2022-12-22T08:42:20.746Z,10.30
2022-12-22T08:44:53.009Z,10.20
2022-12-22T08:47:20.729Z,10.30
2022-12-22T08:49:48.053Z,10.20
2022-12-22T08:52:18.793Z,10.20
2022-12-22T08:54:46.461Z,10.20
2022-12-22T08:57:13.298Z,10.20
2022-12-22T08:59:39.947Z,10.20
2022-12-22T09:02:07.101Z,10.20
2022-12-22T09:04:34.588Z,10.20
2022-12-22T09:07:02.664Z,10.20
2022-12-22T09:09:32.699Z,10.30
2022-12-22T09:12:00.028Z,10.30
2022-12-22T09:14:27.233Z,10.20
2022-12-22T09:16:53.885Z,10.30
2022-12-22T09:19:20.727Z,10.30
2022-12-22T09:21:47.445Z,10.30
2022-12-22T09:24:14.401Z,10.30
2022-12-22T09:26:41.087Z,10.30
2022-12-22T09:29:07.665Z,10.30
2022-12-22T09:31:34.685Z,10.40
2022-12-22T09:34:01.347Z,10.30
2022-12-22T09:36:30.865Z,10.20
2022-12-22T09:38:57.749Z,10.30
2022-12-22T09:41:48.113Z,10.30
2022-12-22T09:44:33.153Z,10.20
2022-12-22T09:47:02.752Z,10.20
2022-12-22T09:49:29.635Z,10.20
2022-12-22T09:51:58.755Z,10.30
2022-12-22T09:54:26.767Z,10.30
2022-12-22T09:56:53.532Z,10.20
2022-12-22T09:59:21.974Z,10.20
2022-12-22T10:02:01.590Z,10.30
2022-12-22T10:04:47.043Z,10.30
2022-12-22T10:07:19.047Z,10.20
2022-12-22T10:09:51.199Z,10.20
2022-12-22T10:12:21.537Z,10.20
2022-12-22T10:14:50.169Z,10.20
2022-12-22T10:17:22.874Z,10.20
2022-12-22T10:19:51.630Z,10.20
2022-12-22T10:22:27.109Z,10.20
2022-12-22T10:24:53.767Z,10.30
2022-12-22T10:27:28.625Z,10.30
2022-12-22T10:30:21.402Z,10.30
2022-12-22T10:33:12.625Z,10.30
2022-12-22T10:35:50.121Z,10.30
2022-12-22T10:38:22.473Z,10.50
2022-12-22T10:40:58.351Z,10.60
2022-12-22T10:43:41.259Z,10.70
2022-12-22T10:46:07.913Z,10.70
2022-12-22T10:48:39.549Z,10.70
2022-12-22T10:51:08.460Z,10.90
2022-12-22T10:53:50.854Z,10.80
2022-12-22T10:56:23.723Z,10.90
2022-12-22T10:58:54.167Z,10.90
2022-12-22T11:01:30.323Z,10.80
2022-12-22T11:03:58.505Z,10.80
2022-12-22T11:06:25.277Z,10.70
2022-12-22T11:08:52.192Z,10.70
2022-12-22T11:11:51.242Z,10.60
2022-12-22T11:15:04.077Z,10.60
2022-12-22T11:17:36.774Z,10.60
2022-12-22T11:20:13.443Z,10.60
2022-12-22T11:23:02.219Z,10.60
2022-12-22T11:25:38.147Z,10.60
2022-12-22T11:28:14.009Z,10.60
2022-12-22T11:31:15.184Z,10.60
2022-12-22T11:33:53.882Z,10.60
2022-12-22T11:36:44.090Z,10.60
2022-12-22T11:39:35.717Z,10.60
2022-12-22T11:42:07.765Z,10.60
2022-12-22T11:44:40.873Z,10.60
2022-12-22T11:47:41.533Z,10.50
2022-12-22T11:51:01.044Z,10.60
2022-12-22T11:54:06.980Z,10.60
2022-12-22T11:56:40.604Z,10.60
2022-12-22T11:59:30.532Z,10.50
2022-12-22T12:02:39.662Z,10.50
2022-12-22T12:05:23.437Z,10.40
2022-12-22T12:08:11.055Z,10.40
2022-12-22T12:10:40.452Z,10.50
2022-12-22T12:13:44.931Z,10.50
2022-12-22T12:16:47.966Z,10.40
2022-12-22T12:19:42.361Z,10.40
2022-12-22T12:22:38.163Z,10.40
2022-12-22T12:25:26.253Z,10.40
2022-12-22T12:28:08.116Z,10.30
2022-12-22T12:30:47.743Z,10.30
2022-12-22T12:33:21.470Z,10.20
2022-12-22T12:35:53.824Z,10.20
2022-12-22T12:39:06.410Z,10.20
2022-12-22T12:41:33.630Z,10.20
2022-12-22T12:44:02.586Z,10.20
2022-12-22T12:46:52.806Z,10.10
2022-12-22T12:49:34.919Z,10.10
2022-12-22T12:52:06.161Z,10.20
2022-12-22T12:54:32.852Z,10.20
2022-12-22T12:57:12.452Z,10.20
2022-12-22T12:59:42.066Z,10.30
2022-12-22T13:02:56.145Z,10.20
2022-12-22T13:05:52.333Z,10.30
2022-12-22T13:08:30.292Z,10.30
2022-12-22T13:10:56.863Z,10.30
2022-12-22T13:13:23.715Z,10.30
2022-12-22T13:16:10.292Z,10.30
2022-12-22T13:18:49.154Z,10.20
2022-12-22T13:24:26.497Z,10.10
2022-12-22T13:26:55.996Z,10.10
2022-12-22T13:29:22.872Z,10.10
2022-12-22T13:32:14.148Z,10.00
2022-12-22T13:35:28.953Z,10.00
2022-12-22T13:37:41.978Z,9.90
2022-12-22T13:40:13.531Z,9.80
2022-12-22T13:42:45.324Z,9.80
2022-12-22T13:45:36.956Z,9.80
2022-12-22T13:48:13.713Z,9.80
2022-12-22T13:50:48.569Z,9.70
2022-12-22T13:56:41.221Z,9.80
2022-12-22T13:59:28.956Z,9.80
2022-12-22T14:02:01.786Z,9.80
2022-12-22T14:04:30.022Z,9.80
2022-12-22T14:06:57.030Z,9.80
2022-12-22T14:09:28.103Z,9.80
2022-12-22T14:12:00.648Z,9.80
2022-12-22T14:14:35.614Z,9.80
2022-12-22T14:17:02.812Z,9.80
2022-12-22T14:19:34.824Z,9.80
2022-12-22T14:22:10.244Z,9.80
2022-12-22T14:24:59.012Z,9.80
2022-12-22T14:27:32.565Z,9.80
2022-12-22T14:30:02.008Z,9.70
2022-12-22T14:32:36.948Z,9.70
2022-12-22T14:35:04.498Z,9.70
2022-12-22T14:37:33.129Z,9.80
2022-12-22T14:39:59.960Z,9.80
2022-12-22T14:42:26.719Z,9.80
2022-12-22T14:44:53.483Z,9.80
2022-12-22T14:47:26.597Z,9.80
2022-12-22T14:50:01.455Z,9.80
2022-12-22T14:52:43.272Z,9.80
2022-12-22T14:55:31.276Z,9.80
2022-12-22T14:58:10.284Z,9.80
2022-12-22T15:00:42.711Z,9.80
2022-12-22T15:03:33.031Z,9.80
2022-12-22T15:06:24.275Z,9.70
2022-12-22T15:08:54.702Z,9.70
2022-12-22T15:11:24.128Z,9.70
2022-12-22T15:13:51.897Z,9.70
2022-12-22T15:16:21.246Z,9.60
2022-12-22T15:18:48.485Z,9.60
2022-12-22T15:21:17.442Z,9.60
2022-12-22T15:23:44.566Z,9.60
2022-12-22T15:26:11.720Z,9.60
2022-12-22T15:28:38.572Z,9.60
2022-12-22T15:31:11.918Z,9.60
2022-12-22T15:33:38.588Z,9.50
2022-12-22T15:36:06.646Z,9.50
2022-12-22T15:38:38.505Z,9.50
2022-12-22T15:41:06.717Z,9.50
2022-12-22T15:46:22.270Z,9.50
2022-12-22T15:48:49.084Z,9.50
2022-12-22T15:51:26.562Z,9.50
2022-12-22T15:53:54.599Z,9.40
2022-12-22T15:56:24.760Z,9.40
2022-12-22T15:58:51.876Z,9.50
2022-12-22T16:01:18.525Z,9.40
2022-12-22T16:03:45.330Z,9.40
2022-12-22T16:06:17.901Z,9.30
2022-12-22T16:08:49.480Z,9.30
2022-12-22T16:11:17.242Z,9.30
2022-12-22T16:13:44.761Z,9.30
2022-12-22T16:16:12.116Z,9.30
2022-12-22T16:18:38.961Z,9.20
2022-12-22T16:21:13.071Z,9.20
2022-12-22T16:23:42.767Z,9.20
2022-12-22T16:26:13.808Z,9.20
2022-12-22T16:28:40.418Z,9.20
2022-12-22T16:31:21.819Z,9.10
2022-12-22T16:33:49.278Z,9.20
2022-12-22T16:36:16.553Z,9.10
2022-12-22T16:38:45.652Z,9.10
2022-12-22T16:41:32.622Z,9.00
2022-12-22T16:46:45.291Z,9.00
2022-12-22T16:49:22.968Z,9.00
2022-12-22T16:51:53.691Z,9.00
2022-12-22T16:54:20.512Z,9.00
2022-12-22T16:56:47.297Z,9.00
2022-12-22T16:59:14.641Z,9.00
2022-12-22T17:01:46.595Z,9.00
2022-12-22T17:04:21.458Z,9.00
2022-12-22T17:06:49.631Z,9.00
2022-12-22T17:09:27.970Z,8.90
2022-12-22T17:11:55.363Z,8.90
2022-12-22T17:14:37.462Z,8.90
2022-12-22T17:17:04.187Z,9.00
2022-12-22T17:19:30.925Z,9.10
2022-12-22T17:21:58.584Z,9.00
2022-12-22T17:24:28.437Z,8.90
2022-12-22T17:27:01.153Z,9.00
2022-12-22T17:29:28.354Z,8.90
2022-12-22T17:31:56.493Z,8.90
2022-12-22T17:34:23.778Z,9.00
2022-12-22T17:36:50.687Z,9.00
2022-12-22T17:39:21.174Z,9.00
2022-12-22T17:41:54.319Z,9.00
2022-12-22T17:44:25.204Z,9.00
2022-12-22T17:46:52.194Z,9.10
2022-12-22T17:49:21.908Z,9.10
2022-12-22T17:51:48.755Z,9.10
2022-12-22T17:54:24.886Z,9.10
2022-12-22T17:56:53.919Z,9.10
2022-12-22T17:59:20.840Z,9.10
2022-12-22T18:01:47.542Z,9.00
2022-12-22T18:04:14.367Z,8.90
2022-12-22T18:06:42.556Z,8.90
2022-12-22T18:09:22.610Z,8.90
2022-12-22T18:11:50.142Z,9.00
2022-12-22T18:14:18.375Z,8.90
2022-12-22T18:16:45.247Z,8.90
2022-12-22T18:19:11.927Z,8.80
2022-12-22T18:21:39.169Z,8.90
2022-12-22T18:24:06.346Z,8.90
2022-12-22T18:26:33.048Z,8.90
2022-12-22T18:28:59.890Z,8.90
2022-12-22T18:31:26.702Z,8.90
2022-12-22T18:33:53.427Z,8.90
2022-12-22T18:36:33.049Z,8.90
2022-12-22T18:39:00.788Z,8.90
2022-12-22T18:41:29.371Z,9.00
2022-12-22T18:43:56.048Z,8.90
2022-12-22T18:46:24.030Z,8.90
2022-12-22T18:48:50.758Z,8.90
2022-12-22T18:51:25.541Z,8.90
2022-12-22T18:53:53.657Z,8.90
2022-12-22T18:56:20.260Z,8.90
2022-12-22T18:58:47.072Z,8.80
2022-12-22T19:01:25.607Z,8.80
2022-12-22T19:03:55.769Z,8.80
2022-12-22T19:06:23.489Z,8.80
2022-12-22T19:08:50.839Z,8.80
2022-12-22T19:11:23.743Z,8.80
2022-12-22T19:13:52.246Z,8.80
2022-12-22T19:16:24.924Z,8.70
2022-12-22T19:18:51.663Z,8.70
2022-12-22T19:21:19.542Z,8.80
2022-12-22T19:23:46.580Z,8.70
2022-12-22T19:26:21.817Z,8.80
2022-12-22T19:28:52.002Z,8.70
2022-12-22T19:31:25.444Z,8.70
2022-12-22T19:33:52.956Z,8.70
2022-12-22T19:36:28.099Z,8.60
2022-12-22T19:39:03.372Z,8.60
2022-12-22T19:41:43.306Z,8.60
2022-12-22T19:44:23.090Z,8.60
2022-12-22T19:46:50.827Z,8.70
2022-12-22T19:49:20.255Z,8.70
2022-12-22T19:51:46.987Z,8.70
2022-12-22T19:54:13.939Z,8.60
2022-12-22T19:56:42.223Z,8.70
2022-12-22T19:59:37.980Z,8.70
2022-12-22T20:02:21.190Z,8.70
2022-12-22T20:04:49.109Z,8.60
2022-12-22T20:07:18.345Z,8.60
2022-12-22T20:09:45.042Z,8.70
2022-12-22T20:12:34.323Z,8.70
2022-12-22T20:15:02.404Z,8.70
2022-12-22T20:17:29.153Z,8.70
2022-12-22T20:19:55.919Z,8.70
2022-12-22T20:22:23.739Z,8.70
2022-12-22T20:24:50.916Z,8.80
2022-12-22T20:27:23.804Z,8.80
2022-12-22T20:29:50.618Z,8.80
2022-12-22T20:32:25.420Z,8.90
2022-12-22T20:34:54.201Z,8.80
2022-12-22T20:37:20.920Z,8.80
2022-12-22T20:39:47.695Z,8.90
2022-12-22T20:42:24.825Z,8.80
2022-12-22T20:45:03.469Z,8.70
2022-12-22T20:47:33.261Z,8.80
2022-12-22T20:49:59.983Z,8.70
2022-12-22T20:52:26.843Z,8.70
2022-12-22T20:54:53.562Z,8.70
2022-12-22T20:57:21.699Z,8.70
2022-12-22T20:59:53.894Z,8.80
2022-12-22T21:02:27.619Z,8.90
2022-12-22T21:04:54.773Z,8.90
2022-12-22T21:07:21.384Z,8.90
2022-12-22T21:09:48.008Z,8.80
2022-12-22T21:12:14.852Z,8.90
2022-12-22T21:14:41.461Z,8.90
2022-12-22T21:17:16.813Z,8.90
2022-12-22T21:19:43.484Z,9.00
2022-12-22T21:22:10.092Z,8.90
2022-12-22T21:24:36.746Z,9.00
2022-12-22T21:27:04.940Z,9.00
2022-12-22T21:29:31.762Z,8.90
2022-12-22T21:31:58.469Z,9.00
2022-12-22T21:34:25.090Z,8.90
2022-12-22T21:36:59.888Z,9.00
2022-12-22T21:39:39.151Z,9.00
2022-12-22T21:42:07.506Z,9.00
2022-12-22T21:44:35.393Z,9.00
2022-12-22T21:47:02.830Z,9.00
2022-12-22T21:49:31.922Z,9.00
2022-12-22T21:51:58.926Z,9.00
2022-12-22T21:54:26.595Z,9.10
2022-12-22T21:56:54.287Z,9.00
2022-12-22T21:59:21.685Z,9.10
2022-12-22T22:01:48.797Z,9.10
2022-12-22T22:04:15.526Z,9.10
2022-12-22T22:06:42.189Z,9.00
2022-12-22T22:09:08.951Z,9.20
2022-12-22T22:11:55.849Z,9.20
2022-12-22T22:14:22.538Z,9.20
2022-12-22T22:16:49.487Z,9.20
2022-12-22T22:19:17.968Z,9.20
2022-12-22T22:21:45.427Z,9.20
2022-12-22T22:24:12.614Z,9.20
2022-12-22T22:26:39.460Z,9.10
2022-12-22T22:29:06.085Z,9.20
2022-12-22T22:31:32.758Z,9.20
2022-12-22T22:33:59.634Z,9.10
2022-12-22T22:36:26.205Z,9.20
2022-12-22T22:38:52.948Z,9.20
2022-12-22T22:41:19.561Z,9.20
2022-12-22T22:43:46.117Z,9.10
2022-12-22T22:46:12.813Z,9.20
2022-12-22T22:48:39.567Z,9.20
2022-12-22T22:51:10.583Z,9.10
2022-12-22T22:53:37.347Z,9.20
2022-12-22T22:56:04.335Z,9.20
2022-12-22T22:58:31.018Z,9.20
2022-12-22T23:01:09.964Z,9.10
2022-12-22T23:03:37.791Z,9.10
2022-12-22T23:06:06.982Z,9.20
2022-12-22T23:08:34.319Z,9.20
2022-12-22T23:11:01.690Z,9.20
2022-12-22T23:13:28.838Z,9.30
2022-12-22T23:15:56.347Z,9.30
2022-12-22T23:18:23.334Z,9.20
2022-12-22T23:20:50.030Z,9.20
2022-12-22T23:23:17.646Z,9.20
2022-12-22T23:25:46.118Z,9.20
2022-12-22T23:28:13.177Z,9.20
2022-12-22T23:30:44.952Z,9.30
2022-12-22T23:33:11.881Z,9.20
2022-12-22T23:35:39.739Z,9.30
2022-12-22T23:38:09.660Z,9.30
2022-12-22T23:40:54.359Z,9.30
2022-12-22T23:43:22.241Z,9.30
2022-12-22T23:45:48.870Z,9.20
2022-12-22T23:48:15.580Z,9.20
2022-12-22T23:50:45.384Z,9.30
2022-12-22T23:53:12.024Z,9.30
2022-12-22T23:55:43.959Z,9.20
2022-12-22T23:58:10.724Z,9.30
